KRVS/RVS METAR and TAF weather

Enter ICAO airport designator
Station Type Date Time Source
KRVS METAR 2021/05/14 05:53 UTC NOAA

KRVS 140553Z AUTO 00000KT 10SM CLR 11/09 A3025 RMK AO2 SLP250 60000 T01110089 10222 20111 402330083 50004


Station Type Date Time Source
KRVS Decoded METAR 2021/05/14 05:53 UTC NOAA

TULSA JONES JR. AIRPORT, OK, United States (KRVS) 36-03N 095-59W 200M
May 14, 2021 - 01:53 AM EDT / 2021.05.14 0553 UTC
Wind: Calm:0
Visibility: 10 mile(s):0
Sky conditions: clear
Temperature: 52.0 F (11.1 C)
Dew Point: 48.0 F (8.9 C)
Relative Humidity: 86%
Pressure (altimeter): 30.25 in. Hg (1024 hPa)
Pressure tendency: 0.01 inches (0.4 hPa) higher than three hours ago
ob: KRVS 140553Z AUTO 00000KT 10SM CLR 11/09 A3025 RMK AO2 SLP250 60000 T01110089 10222 20111 402330083 50004
cycle: 6

Station Type Date Time Source
KRVS TAF 2021/05/14 06:30 UTC NOAA

TAF KRVS 140528Z 1406/1506 15005KT P6SM FEW250
FM141300 17007KT P6SM SCT120
FM141800 18010G17KT P6SM SCT050 BKN100
FM150100 16008KT P6SM BKN100

Example: see airport list